Terminal Aerodrome Forecast
Issued by NWS

Home | Current Version | Previous Version | Text Only | Print | Product List | Glossary On
Versions: 1 2 3 4 5 6 7 8 9 10 11 12
748
FTUS46 KLOX 071740
TAFWJF
TAF
KWJF 071740Z 0718/0818 00000KT P6SM SKC
     FM071900 06012KT P6SM SKC
     FM080500 06008KT P6SM SKC=

USA.gov is the U.S. government's official web portal to all federal, state and local government web resources and services.